Temp     Hi    Low   Out    Dew  Wind  Wind   Wind    Hi    Hi   Wind   Heat    THW                Rain    Heat    Cool    In     In    In     In     In   In Air   Temp  Wind  Wind    ISS   Arc.
  Date    Time     Out   Temp   Temp   Hum    Pt. Speed   Dir    Run Speed   Dir  Chill  Index  Index   Bar    Rain  Rate    D-D     D-D    Temp   Hum    Dew   Heat    EMC Density    2nd  Samp   Tx   Recept  Int.
----------------------------------------------------------------------------------------------------------------------------------------------------------------------------------------------------------------------
21/09/21 12:10a    4.4    4.6    4.4    87    2.5   0.0   ---   0.00   0.0   ---    4.4    4.3    4.3  1011.1  0.25   0.0   0.096   0.000   18.8    34    2.6   17.1   6.85 1.1982     ---   117    1     51.3   10 
21/09/21 12:20a    4.2    4.4    4.2    86    2.1   0.0   ---   0.00   0.0   ---    4.2    4.1    4.1  1011.5  0.00   0.0   0.098   0.000   18.6    34    2.4   16.8   6.85 1.1997     ---   112    1     49.1   10 
21/09/21 12:30a    4.0    4.2    4.0    85    1.7   0.0   ---   0.00   0.0   ---    4.0    3.9    3.9  1011.3  0.00   0.0   0.100   0.000   18.4    34    2.3   16.6   6.85 1.2003     ---   118    1     51.8   10 
21/09/21 12:40a    3.7    4.0    3.7    85    1.4   0.0   ---   0.00   0.0   ---    3.7    3.6    3.6  1011.3  0.00   0.0   0.101   0.000   18.3    34    2.2   16.5   6.85 1.2008     ---   106    1     46.5   10 
21/09/21 12:50a    3.7    3.7    3.7    83    1.0   0.0   ---   0.00   0.0   ---    3.7    3.6    3.6  1011.4  0.00   0.0   0.102   0.000   18.2    34    2.0   16.3   6.86 1.2016     ---   111    1     48.7   10 
21/09/21  1:00a    3.6    3.7    3.6    82    0.8   0.0   ---   0.00   0.0   ---    3.6    3.4    3.4  1011.4  0.00   0.0   0.103   0.000   18.0    34    1.9   16.2   6.86 1.2024     ---    99    1     43.4   10 
21/09/21  1:10a    3.4    3.6    3.4    80    0.3   0.0   ---   0.00   0.0   ---    3.4    3.2    3.2  1011.4  0.00   0.0   0.104   0.000   17.9    34    1.8   16.1   6.87 1.2029     ---   111    1     48.7   10 
21/09/21  1:20a    3.3    3.4    3.3    80    0.2   0.0   ---   0.00   0.0   ---    3.3    3.1    3.1  1011.5  0.00   0.0   0.105   0.000   17.7    34    1.6   15.9   6.87 1.2038     ---   114    1     50.0   10 
21/09/21  1:30a    3.1    3.2    3.1    79   -0.2   0.0   ---   0.00   0.0   ---    3.1    2.9    2.9  1011.5  0.00   0.0   0.106   0.000   17.6    34    1.5   15.7   6.88 1.2046     ---   102    1     44.7   10 
21/09/21  1:40a    3.0    3.1    3.0    78   -0.5   0.0   ---   0.00   0.0   ---    3.0    2.8    2.8  1011.5  0.00   0.0   0.106   0.000   17.4    34    1.4   15.6   6.88 1.2051     ---    91    1     39.9   10 
21/09/21  1:50a    2.9    3.0    2.9    78   -0.5   0.0   ---   0.00   0.0   ---    2.9    2.8    2.8  1011.5  0.00   0.0   0.107   0.000   17.3    34    1.3   15.4   6.89 1.2059     ---    69    1     30.3   10 
21/09/21  2:00a    2.8    2.9    2.8    78   -0.6   0.0   ---   0.00   0.0   ---    2.8    2.7    2.7  1011.4  0.00   0.0   0.108   0.000   17.2    34    1.2   15.4   6.89 1.2061     ---    58    1     25.4   10 
21/09/21  2:10a    2.7    2.8    2.7    78   -0.7   0.0   ---   0.00   0.0   ---    2.7    2.6    2.6  1011.4  0.00   0.0   0.108   0.000   17.0    34    1.0   15.2   6.90 1.2071     ---    87    1     38.2   10 
21/09/21  2:20a    2.4    2.7    2.4    79   -0.8   0.0   ---   0.00   0.0   ---    2.4    2.3    2.3  1011.8  0.00   0.0   0.110   0.000   16.9    34    1.0   15.1   6.90 1.2078     ---   105    1     46.1   10 
21/09/21  2:30a    2.3    2.4    2.3    79   -1.0   0.0   ---   0.00   0.0   ---    2.3    2.1    2.1  1012.2  0.00   0.0   0.111   0.000   16.8    34    0.8   14.9   6.91 1.2091     ---   112    1     49.1   10 
21/09/21  2:40a    2.2    2.3    2.2    80   -0.9   0.0   ---   0.00   0.0   ---    2.2    2.0    2.0  1012.2  0.00   0.0   0.112   0.000   16.7    34    0.7   14.8   6.91 1.2096     ---   106    1     46.5   10 
21/09/21  2:50a    2.0    2.1    2.0    80   -1.1   0.0   ---   0.00   0.0   ---    2.0    1.8    1.8  1011.6  0.00   0.0   0.113   0.000   16.5    34    0.6   14.7   6.92 1.2097     ---   100    1     43.9   10 
21/09/21  3:00a    1.9    2.0    1.9    80   -1.2   0.0   ---   0.00   0.0   ---    1.9    1.7    1.7  1012.2  0.00   0.0   0.114   0.000   16.4    34    0.5   14.6   6.92 1.2108     ---   106    1     46.5   10 
21/09/21  3:10a    1.9    1.9    1.9    80   -1.2   0.0   ---   0.00   0.0   ---    1.9    1.7    1.7  1012.2  0.00   0.0   0.114   0.000   16.3    34    0.4   14.5   6.92 1.2111     ---   110    1     48.2   10 
21/09/21  3:20a    1.8    1.9    1.8    80   -1.3   0.0   ---   0.00   0.0   ---    1.8    1.7    1.7  1012.5  0.00   0.0   0.115   0.000   16.2    34    0.3   14.3   6.93 1.2122     ---   108    1     47.4   10 
21/09/21  3:30a    1.7    1.8    1.7    80   -1.4   0.0   ---   0.00   0.0   ---    1.7    1.6    1.6  1012.3  0.00   0.0   0.115   0.000   16.2    34    0.3   14.3   6.93 1.2121     ---   121    1     53.1   10 
21/09/21  3:40a    1.6    1.7    1.6    81   -1.4   0.0   ---   0.00   0.0   ---    1.6    1.4    1.4  1012.3  0.00   0.0   0.117   0.000   16.0    34    0.1   14.2   6.93 1.2128     ---    94    1     41.2   10 
21/09/21  3:50a    1.4    1.6    1.4    81   -1.5   0.0   ---   0.00   0.0   ---    1.4    1.2    1.2  1012.5  0.00   0.0   0.118   0.000   15.9    34    0.0   14.1   6.94 1.2135     ---    96    1     42.1   10 
21/09/21  4:00a    1.3    1.4    1.3    81   -1.6   0.0   ---   0.00   0.0   ---    1.3    1.2    1.2  1012.5  0.00   0.0   0.118   0.000   15.8    34   -0.1   14.0   6.94 1.2141     ---    77    1     33.8   10 
21/09/21  4:10a    1.1    1.2    1.1    82   -1.7   0.0   ---   0.00   0.0   ---    1.1    0.8    0.8  1012.5  0.00   0.0   0.120   0.000   15.6    34   -0.2   13.8   6.95 1.2149     ---    66    1     28.9   10 
21/09/21  4:20a    1.0    1.1    1.0    83   -1.6   0.0   ---   0.00   0.0   ---    1.0    0.8    0.8  1012.4  0.00   0.0   0.120   0.000   15.6    34   -0.3   13.8   6.95 1.2150     ---    72    1     31.6   10 
21/09/21  4:30a    0.9    1.0    0.9    83   -1.7   0.0   ---   0.00   0.0   ---    0.9    0.7    0.7  1012.6  0.00   0.0   0.121   0.000   15.4    34   -0.4   13.7   6.95 1.2157     ---   129    1     56.6   10 
21/09/21  4:40a    1.0    1.0    0.9    84   -1.4   0.0   ---   0.00   0.0   ---    1.0    0.8    0.8  1012.6  0.00   0.0   0.120   0.000   15.4    34   -0.4   13.6   6.94 1.2160     ---   115    1     50.4   10 
21/09/21  4:50a    0.9    1.0    0.9    84   -1.5   0.0   ---   0.00   0.0   ---    0.9    0.7    0.7  1012.8  0.00   0.0   0.121   0.000   15.3    34   -0.5   13.5   6.94 1.2168     ---   116    1     50.9   10 
21/09/21  5:00a    0.7    0.9    0.7    84   -1.7   0.0   ---   0.00   0.0   ---    0.7    0.6    0.6  1012.9  0.00   0.0   0.122   0.000   15.2    34   -0.6   13.4   6.94 1.2172     ---   109    1     47.8   10 
21/09/21  5:10a    0.6    0.7    0.6    84   -1.8   0.0   ---   0.00   0.0   ---    0.6    0.4    0.4  1012.9  0.00   0.0   0.123   0.000   15.1    34   -0.7   13.3   6.93 1.2177     ---   109    1     47.8   10 
21/09/21  5:20a    0.5    0.6    0.5    84   -1.9   0.0   ---   0.00   0.0   ---    0.5    0.4    0.4  1013.2  0.00   0.0   0.124   0.000   15.1    34   -0.7   13.3   6.93 1.2183     ---   109    1     47.8   10 
21/09/21  5:30a    0.4    0.5    0.4    85   -1.8   0.0   ---   0.00   0.0   ---    0.4    0.3    0.3  1013.5  0.00   0.0   0.124   0.000   14.9    34   -0.8   13.2   6.93 1.2193     ---   106    1     46.5   10 
21/09/21  5:40a    0.4    0.4    0.4    85   -1.8   0.0   ---   0.00   0.0   ---    0.4    0.3    0.3  1013.5  0.00   0.0   0.124   0.000   14.9    34   -0.9   13.2   6.93 1.2195     ---   106    1     46.5   10 
21/09/21  5:50a    0.3    0.4    0.3    85   -1.9   0.0   ---   0.00   0.0   ---    0.3    0.2    0.2  1013.7  0.00   0.0   0.125   0.000   14.8    34   -1.0   13.1   6.92 1.2202     ---   102    1     44.7   10 
21/09/21  6:00a    0.3    0.3    0.3    86   -1.8   0.0   ---   0.00   0.0   ---    0.3    0.2    0.2  1013.9  0.00   0.0   0.125   0.000   14.6    35   -0.7   12.9   7.05 1.2210     ---   106    1     46.5   10 
21/09/21  6:10a    0.2    0.3    0.2    87   -1.7   0.0   ---   0.00   0.0   ---    0.2    0.1    0.1  1013.9  0.00   0.0   0.126   0.000   14.6    35   -0.7   12.9   7.05 1.2213     ---    97    1     42.5   10 
21/09/21  6:20a    0.1    0.2    0.1    87   -1.8   0.0   ---   0.00   0.0   ---    0.1    0.0    0.0  1014.5  0.00   0.0   0.127   0.000   14.4    35   -0.8   12.8   7.05 1.2225     ---    78    1     34.2   10 
21/09/21  6:30a    0.0    0.1    0.0    87   -1.9   0.0   ---   0.00   0.0   ---    0.0   -0.1   -0.1  1014.7  0.00   0.0   0.127   0.000   14.3    35   -0.9   12.7   7.05 1.2234     ---    68    1     29.8   10 
21/09/21  6:40a    0.0    0.0    0.0    87   -1.9   0.0   ---   0.00   0.0   ---    0.0   -0.1   -0.1  1014.7  0.00   0.0   0.127   0.000   14.6    35   -0.7   12.9   7.05 1.2223     ---    75    1     32.9   10 
21/09/21  6:50a    0.3    0.3    0.0    88   -1.5   0.0   ---   0.00   0.0   ---    0.3    0.2    0.2  1015.0  0.00   0.0   0.125   0.000   15.2    36    0.2   13.6   7.24 1.2193     ---   116    1     50.9   10 
21/09/21  7:00a    0.6    0.6    0.3    89   -1.0   0.0   ---   0.00   0.0   ---    0.6    0.4    0.4  1015.4  0.00   0.0   0.123   0.000   16.1    36    1.0   14.3   7.23 1.2159     ---   105    1     46.1   10 
21/09/21  7:10a    1.1    1.1    0.7    90   -0.4   0.0   ---   0.00   0.0   ---    1.1    0.9    0.9  1015.4  0.00   0.0   0.120   0.000   16.9    35    1.4   15.2   7.05 1.2119     ---   102    1     44.7   10 
21/09/21  7:20a    1.6    1.6    1.1    90    0.1   0.0   ---   0.00   0.0   ---    1.6    1.5    1.5  1015.8  0.00   0.0   0.117   0.000   17.8    34    1.7   16.0   6.87 1.2084     ---    93    1     40.8   10 
21/09/21  7:30a    2.1    2.1    1.7    89    0.4   0.0   ---   0.00   0.0   ---    2.1    2.0    2.0  1016.0  0.00   0.0   0.113   0.000   18.6    33    2.0   16.8   6.74 1.2053     ---   106    1     46.5   10 
21/09/21  7:40a    2.6    2.6    2.1    88    0.8   0.0   ---   0.00   0.0   ---    2.6    2.5    2.5  1016.0  0.00   0.0   0.110   0.000   19.0    33    2.3   17.2   6.73 1.2035     ---   111    1     48.7   10 
21/09/21  7:50a    3.0    3.0    2.6    85    0.7   0.0   ---   0.00   0.0   ---    3.0    2.9    2.9  1016.1  0.00   0.0   0.106   0.000   20.0    32    2.8   18.1   6.55 1.1992     ---   105    1     46.1   10 
21/09/21  8:00a    3.8    3.8    3.1    81    0.9   0.0   ---   0.00   0.0   ---    3.8    3.7    3.7  1016.4  0.00   0.0   0.101   0.000   20.7    31    3.0   18.8   6.36 1.1965     ---   101    1     44.3   10 
21/09/21  8:10a    4.2    4.2    3.8    79    0.9   0.0   ---   0.00   0.0   ---    4.2    4.1    4.1  1016.4  0.00   0.0   0.098   0.000   21.4    31    3.6   19.5   6.34 1.1934     ---   101    1     44.3   10 
21/09/21  8:20a    4.9    4.9    4.3    77    1.2   0.0   ---   0.00   0.0   ---    4.9    4.7    4.7  1016.5  0.00   0.0   0.093   0.000   21.8    30    3.4   20.0   6.20 1.1921     ---   110    1     48.2   10 
21/09/21  8:30a    5.4    5.4    4.9    71    0.5   0.0   ---   0.00   0.0   ---    5.4    5.1    5.1  1016.5  0.00   0.0   0.090   0.000   22.1    29    3.2   20.3   5.98 1.1911     ---    97    1     42.5   10 
21/09/21  8:40a    5.8    5.8    5.4    66   -0.1   0.0   ---   0.00   0.0   ---    5.8    5.4    5.4  1016.5  0.00   0.0   0.087   0.000   22.4    29    3.5   20.9   5.95 1.1893     ---    78    1     34.2   10 
21/09/21  8:50a    6.3    6.3    5.8    63   -0.2   0.0   ---   0.00   0.0   ---    6.3    5.9    5.9  1016.9  0.00   0.0   0.083   0.000   22.7    28    3.3   21.3   5.78 1.1888     ---    85    1     37.3   10 
21/09/21  9:00a    7.1    7.1    6.4    58   -0.7   0.0   ---   0.00   0.0   ---    7.1    6.6    6.6  1016.8  0.00   0.0   0.078   0.000   23.0    28    3.5   21.7   5.75 1.1875     ---   145    1     63.6   10 
21/09/21  9:10a    7.6    7.6    7.1    55   -0.9   0.0   ---   0.00   0.0   ---    7.6    7.0    7.0  1016.8  0.00   0.0   0.075   0.000   23.1    28    3.6   21.9   5.73 1.1870     ---   155    1     68.0   10 
21/09/21  9:20a    7.8    7.8    7.6    53   -1.2   0.0   ---   0.00   0.0   ---    7.8    7.3    7.3  1016.7  0.00   0.0   0.073   0.000   23.3    27    3.2   22.1   5.62 1.1864     ---   105    1     46.1   10 
21/09/21  9:30a    8.4    8.4    7.9    56    0.1   0.0   ---   0.00   0.0   ---    8.4    7.8    7.8  1016.7  0.00   0.0   0.069   0.000   23.4    27    3.3   22.3   5.60 1.1859     ---   101    1     44.3   10 
21/09/21  9:40a    8.9    8.9    8.6    53   -0.1   0.0   ---   0.00   0.0   ---    8.9    8.3    8.3  1016.7  0.00   0.0   0.065   0.000   23.5    27    3.4   22.4   5.59 1.1854     ---   119    1     52.2   10 
21/09/21  9:50a    9.4    9.4    9.1    50   -0.5   0.0   ---   0.00   0.0   ---    9.4    8.7    8.7  1016.7  0.00   0.0   0.062   0.000   23.5    27    3.4   22.4   5.59 1.1854     ---   112    1     49.1   10 
21/09/21 10:00a    9.6    9.6    9.4    49   -0.6   0.0   ---   0.00   0.0   ---    9.6    8.9    8.9  1016.7  0.00   0.0   0.061   0.000   23.7    26    3.0   22.5   5.47 1.1849     ---   123    1     53.9   10 
21/09/21 10:10a    9.8    9.8    9.6    49   -0.4   0.0   ---   0.00   0.0   ---    9.8    9.1    9.1  1016.7  0.00   0.0   0.059   0.000   23.5    26    2.9   22.3   5.48 1.1857     ---   120    1     52.6   10 
21/09/21 10:20a    9.7    9.7    9.7    48   -0.8   0.0   ---   0.00   0.0   ---    9.7    9.1    9.1  1017.1  0.00   0.0   0.060   0.000   23.5    26    2.9   22.3   5.48 1.1862     ---    92    1     40.4   10 
21/09/21 10:30a    9.3    9.6    9.3    48   -1.2   0.0   ---   0.00   0.0   ---    9.3    8.6    8.6  1017.2  0.00   0.0   0.063   0.000   23.3    26    2.7   22.1   5.49 1.1873     ---    64    1     28.1   10 
21/09/21 10:40a    9.4    9.4    9.3    48   -1.1   0.0   ---   0.00   0.0   ---    9.4    8.7    8.7  1017.2  0.00   0.0   0.062   0.000   23.3    26    2.7   22.1   5.49 1.1873     ---    94    1     41.2   10 
21/09/21 10:50a    9.6    9.6    9.4    49   -0.6   0.0   ---   0.00   0.0   ---    9.6    8.9    8.9  1017.3  0.00   0.0   0.061   0.000   23.3    26    2.7   22.1   5.49 1.1875     ---   123    1     53.9   10 
21/09/21 11:00a    9.8    9.9    9.6    49   -0.4   0.0   ---   0.00   0.0   ---    9.8    9.2    9.2  1017.5  0.00   0.0   0.059   0.000   23.4    26    2.8   22.2   5.49 1.1872     ---   120    1     52.6   10 
21/09/21 11:10a   10.2   10.2    9.8    48   -0.4   0.0   ---   0.00   0.0   ---   10.2    9.4    9.4  1017.5  0.00   0.0   0.057   0.000   23.2    26    2.6   21.9   5.50 1.1882     ---   117    1     51.3   10 
21/09/21 11:20a   10.8   10.8   10.3    47   -0.1   0.0   ---   0.00   0.0   ---   10.8    9.9    9.9  1017.3  0.00   0.0   0.052   0.000   23.3    25    2.1   22.0   5.32 1.1878     ---   122    1     53.5   10 
21/09/21 11:30a   11.3   11.3   10.8    46    0.1   0.0   ---   0.00   0.0   ---   11.3   10.3   10.3  1017.0  0.00   0.0   0.049   0.000   23.0    26    2.5   21.6   5.51 1.1884     ---   122    1     53.5   10 
21/09/21 11:40a   11.1   11.3   11.1    44   -0.7   0.0   ---   0.00   0.0   ---   11.1   10.2   10.2  1017.0  0.00   0.0   0.050   0.000   22.9    26    2.4   21.4   5.52 1.1889     ---   124    1     54.4   10 
21/09/21 11:50a   11.2   11.2   11.1    44   -0.6   0.0   ---   0.00   0.0   ---   11.2   10.2   10.2  1017.0  0.00   0.0   0.050   0.000   22.8    26    2.3   21.4   5.53 1.1891     ---   112    1     49.1   10 
21/09/21 12:00p   11.5   11.5   11.3    44   -0.3   0.0   ---   0.00   0.0   ---   11.5   10.5   10.5  1017.1  0.00   0.0   0.047   0.000   22.7    26    2.2   21.2   5.53 1.1897     ---    95    1     41.7   10 
21/09/21 12:10p   11.3   11.5   11.3    45   -0.2   0.0   ---   0.00   0.0   ---   11.3   10.3   10.3  1017.1  0.00   0.0   0.049   0.000   22.8    26    2.3   21.4   5.53 1.1892     ---    68    1     29.8   10 
21/09/21 12:20p   11.4   11.4   11.3    44   -0.4   0.0   ---   0.00   0.0   ---   11.4   10.4   10.4  1017.2  0.00   0.0   0.048   0.000   22.8    26    2.3   21.4   5.53 1.1894     ---    85    1     37.3   10 
21/09/21 12:30p   11.7   11.7   11.5    43   -0.5   0.0   ---   0.00   0.0   ---   11.7   10.6   10.6  1017.4  0.00   0.0   0.046   0.000   22.8    27    2.8   21.4   5.66 1.1892     ---   134    1     58.8   10 
21/09/21 12:40p   12.2   12.2   11.8    40   -1.1   0.0   ---   0.00   0.0   ---   12.2   10.9   10.9  1017.4  0.00   0.0   0.043   0.000   22.7    27    2.7   21.2   5.68 1.1897     ---   112    1     49.1   10 
21/09/21 12:50p   12.2   12.2   12.1    39   -1.3   0.0   ---   0.00   0.0   ---   12.2   10.9   10.9  1017.2  0.00   0.0   0.042   0.000   22.5    27    2.6   20.9   5.70 1.1905     ---   112    1     49.1   10 
21/09/21  1:00p   12.6   12.6   12.2    40   -0.7   0.0   ---   0.00   0.0   ---   12.6   11.3   11.3  1017.3  0.00   0.0   0.040   0.000   22.6    27    2.7   21.1   5.69 1.1902     ---   111    1     48.7   10 
21/09/21  1:10p   12.3   12.6   12.3    39   -1.2   0.0   ---   0.00   0.0   ---   12.3   11.1   11.1  1017.3  0.00   0.0   0.042   0.000   22.5    27    2.6   20.9   5.70 1.1907     ---   126    1     55.3   10 
21/09/21  1:20p   12.5   12.5   12.3    39   -1.1   0.0   ---   0.00   0.0   ---   12.5   11.2   11.2  1017.5  0.00   0.0   0.041   0.000   22.5    27    2.6   20.9   5.70 1.1909     ---   121    1     53.1   10 
21/09/21  1:30p   12.4   12.5   12.4    41   -0.5   0.0   ---   0.00   0.0   ---   12.4   11.2   11.2  1017.7  0.00   0.0   0.041   0.000   22.6    27    2.7   21.1   5.69 1.1906     ---    99    1     43.4   10 
21/09/21  1:40p   12.3   12.4   12.3    40   -0.9   0.0   ---   0.00   0.0   ---   12.3   11.1   11.1  1017.7  0.00   0.0   0.042   0.000   22.5    27    2.6   20.9   5.70 1.1911     ---    85    1     37.3   10 
21/09/21  1:50p   12.7   12.7   12.3    38   -1.3   0.0   ---   0.00   0.0   ---   12.7   11.3   11.3  1017.6  0.00   0.0   0.039   0.000   22.4    27    2.5   20.8   5.71 1.1913     ---    65    1     28.5   10 
21/09/21  2:00p   12.6   12.7   12.6    38   -1.4   0.0   ---   0.00   0.0   ---   12.6   11.2   11.2  1017.3  0.00   0.0   0.040   0.000   22.5    27    2.6   20.9   5.70 1.1907     ---   106    1     46.5   10 
21/09/21  2:10p   12.8   12.8   12.6    38   -1.2   0.0   ---   0.00   0.0   ---   12.8   11.5   11.5  1017.3  0.00   0.0   0.038   0.000   22.6    27    2.7   21.1   5.69 1.1902     ---   111    1     48.7   10 
21/09/21  2:20p   12.8   13.0   12.8    36   -1.9   0.0   ---   0.00   0.0   ---   12.8   11.4   11.4  1017.6  0.00   0.0   0.038   0.000   22.5    27    2.6   20.9   5.70 1.1910     ---   102    1     44.7   10 
21/09/21  2:30p   12.6   12.8   12.6    35   -2.5   0.0   ---   0.00   0.0   ---   12.6   11.1   11.1  1017.7  0.00   0.0   0.040   0.000   22.4    27    2.5   20.8   5.71 1.1914     ---    95    1     41.7   10 
21/09/21  2:40p   12.3   12.5   12.3    34   -3.1   0.0   ---   0.00   0.0   ---   12.3   10.9   10.9  1017.7  0.00   0.0   0.042   0.000   22.3    27    2.4   20.6   5.72 1.1919     ---    97    1     42.5   10 
21/09/21  2:50p   12.4   12.4   12.2    34   -3.1   0.0   ---   0.00   0.0   ---   12.4   10.9   10.9  1018.0  0.00   0.0   0.041   0.000   22.4    27    2.5   20.8   5.71 1.1918     ---   104    1     45.6   10 
21/09/21  3:00p   12.7   12.7   12.4    34   -2.8   0.0   ---   0.00   0.0   ---   12.7   11.2   11.2  1018.0  0.00   0.0   0.039   0.000   22.4    27    2.5   20.8   5.71 1.1917     ---    97    1     42.5   10 
21/09/21  3:10p   12.7   12.7   12.7    32   -3.6   0.0   ---   0.00   0.0   ---   12.7   11.1   11.1  1018.0  0.00   0.0   0.039   0.000   22.3    28    2.9   20.7   5.82 1.1919     ---    74    1     32.5   10 
21/09/21  3:20p   12.6   12.7   12.6    34   -2.9   0.0   ---   0.00   0.0   ---   12.6   11.1   11.1  1018.1  0.00   0.0   0.040   0.000   22.2    28    2.8   20.5   5.83 1.1926     ---    64    1     28.1   10 
21/09/21  3:30p   12.4   12.6   12.4    35   -2.7   0.0   ---   0.00   0.0   ---   12.4   11.0   11.0  1018.3  0.00   0.0   0.041   0.000   22.4    28    3.0   20.8   5.81 1.1917     ---    63    1     27.6   10 
21/09/21  3:40p   12.4   12.4   12.4    36   -2.3   0.0   ---   0.00   0.0   ---   12.4   11.0   11.0  1018.3  0.00   0.0   0.041   0.000   22.3    28    2.9   20.7   5.82 1.1922     ---    99    1     43.4   10 
21/09/21  3:50p   12.3   12.3   12.3    37   -2.0   0.0   ---   0.00   0.0   ---   12.3   11.0   11.0  1018.4  0.00   0.0   0.042   0.000   22.2    28    2.8   20.4   5.84 1.1931     ---    90    1     39.5   10 
21/09/21  4:00p   12.6   12.6   12.3    39   -1.0   0.0   ---   0.00   0.0   ---   12.6   11.3   11.3  1018.4  0.00   0.0   0.040   0.000   22.3    28    2.9   20.7   5.82 1.1924     ---   104    1     45.6   10 
21/09/21  4:10p   12.7   12.7   12.6    39   -0.9   0.0   ---   0.00   0.0   ---   12.7   11.4   11.4  1018.4  0.00   0.0   0.039   0.000   22.2    28    2.8   20.5   5.83 1.1929     ---   111    1     48.7   10 
21/09/21  4:20p   13.0   13.0   12.7    42    0.4   0.0   ---   0.00   0.0   ---   13.0   11.7   11.7  1018.4  0.00   0.0   0.037   0.000   22.2    28    2.8   20.5   5.83 1.1929     ---   113    1     49.6   10 
21/09/21  4:30p   12.9   13.0   12.9    45    1.2   0.0   ---   0.00   0.0   ---   12.9   11.7   11.7  1018.4  0.00   0.0   0.038   0.000   22.1    28    2.7   20.3   5.85 1.1937     ---   107    1     46.9   10 
21/09/21  4:40p   12.7   12.8   12.7    47    1.7   0.0   ---   0.00   0.0   ---   12.7   11.6   11.6  1018.4  0.00   0.0   0.039   0.000   22.1    28    2.7   20.3   5.85 1.1937     ---    91    1     39.9   10 
21/09/21  4:50p   12.6   12.7   12.6    47    1.5   0.0   ---   0.00   0.0   ---   12.6   11.5   11.5  1018.4  0.00   0.0   0.040   0.000   22.2    28    2.8   20.4   5.84 1.1932     ---    70    1     30.7   10 
21/09/21  5:00p   12.4   12.6   12.4    47    1.4   0.0   ---   0.00   0.0   ---   12.4   11.3   11.3  1018.6  0.00   0.0   0.041   0.000   22.1    28    2.7   20.3   5.85 1.1939     ---    53    1     23.2   10 
21/09/21  5:10p   12.2   12.4   12.2    46    0.9   0.0   ---   0.00   0.0   ---   12.2   11.2   11.2  1018.6  0.00   0.0   0.042   0.000   22.1    28    2.7   20.3   5.85 1.1939     ---    92    1     40.4   10 
21/09/21  5:20p   12.0   12.2   12.0    48    1.3   0.0   ---   0.00   0.0   ---   12.0   11.0   11.0  1018.9  0.00   0.0   0.044   0.000   22.1    28    2.7   20.3   5.85 1.1943     ---   106    1     46.5   10 
21/09/21  5:30p   11.6   12.0   11.6    49    1.2   0.0   ---   0.00   0.0   ---   11.6   10.7   10.7  1019.1  0.00   0.0   0.047   0.000   21.8    28    2.5   19.9   5.87 1.1955     ---   103    1     45.2   10 
21/09/21  5:40p   11.4   11.6   11.4    54    2.5   0.0   ---   0.00   0.0   ---   11.4   10.7   10.7  1019.1  0.00   0.0   0.048   0.000   21.9    28    2.6   20.1   5.86 1.1950     ---   114    1     50.0   10 
21/09/21  5:50p   11.2   11.3   11.2    54    2.2   0.0   ---   0.00   0.0   ---   11.2   10.4   10.4  1019.3  0.00   0.0   0.050   0.000   21.8    29    3.0   20.0   6.00 1.1955     ---   115    1     50.4   10 
21/09/21  6:00p   10.8   11.1   10.8    56    2.4   0.0   ---   0.00   0.0   ---   10.8   10.2   10.2  1019.5  0.00   0.0   0.052   0.000   21.8    29    2.9   19.9   6.00 1.1960     ---   108    1     47.4   10 
21/09/21  6:10p   10.6   10.8   10.6    56    2.2   0.0   ---   0.00   0.0   ---   10.6   10.0   10.0  1019.5  0.00   0.0   0.054   0.000   21.8    29    2.9   19.9   6.00 1.1960     ---   104    1     45.6   10 
21/09/21  6:20p   10.3   10.6   10.3    49    0.1   0.0   ---   0.00   0.0   ---   10.3    9.6    9.6  1019.9  0.00   0.0   0.056   0.000   21.6    29    2.8   19.7   6.02 1.1974     ---   101    1     44.3   10 
21/09/21  6:30p   10.3   10.3   10.3    48   -0.3   0.0   ---   0.00   0.0   ---   10.3    9.6    9.6  1020.1  0.00   0.0   0.056   0.000   21.6    29    2.8   19.7   6.02 1.1976     ---    88    1     38.6   10 
21/09/21  6:40p   10.0   10.3   10.0    48   -0.5   0.0   ---   0.00   0.0   ---   10.0    9.3    9.3  1020.1  0.00   0.0   0.058   0.000   21.5    29    2.7   19.6   6.02 1.1979     ---    74    1     32.5   10 
21/09/21  6:50p    9.8   10.0    9.8    49   -0.4   0.0   ---   0.00   0.0   ---    9.8    9.1    9.1  1020.6  0.00   0.0   0.059   0.000   21.5    29    2.7   19.6   6.02 1.1985     ---    99    1     43.4   10 
21/09/21  7:00p    9.6    9.8    9.6    49   -0.6   0.0   ---   0.00   0.0   ---    9.6    8.9    8.9  1020.7  0.00   0.0   0.061   0.000   21.4    30    3.1   19.5   6.23 1.1988     ---   121    1     53.1   10 
21/09/21  7:10p    9.3    9.4    9.3    50   -0.6   0.0   ---   0.00   0.0   ---    9.3    8.6    8.6  1020.7  0.00   0.0   0.063   0.000   21.3    30    3.0   19.3   6.24 1.1993     ---   117    1     51.3   10 
21/09/21  7:20p    8.9    9.2    8.9    51   -0.7   0.0   ---   0.00   0.0   ---    8.9    8.3    8.3  1020.7  0.00   0.0   0.065   0.000   21.5    30    3.2   19.6   6.22 1.1983     ---   130    1     57.0   10 
21/09/21  7:30p    8.7    8.9    8.7    52   -0.6   0.0   ---   0.00   0.0   ---    8.7    8.1    8.1  1021.1  0.00   0.0   0.067   0.000   21.4    30    3.1   19.5   6.23 1.1993     ---   130    1     57.0   10 
21/09/21  7:40p    8.4    8.7    8.4    53   -0.6   0.0   ---   0.00   0.0   ---    8.4    7.8    7.8  1021.1  0.00   0.0   0.069   0.000   21.4    30    3.1   19.5   6.23 1.1993     ---   125    1     54.8   10 
21/09/21  7:50p    8.1    8.4    8.1    56   -0.2   0.0   ---   0.00   0.0   ---    8.1    7.5    7.5  1021.4  0.00   0.0   0.071   0.000   21.3    30    3.0   19.3   6.24 1.2001     ---   131    1     57.5   10 
21/09/21  8:00p    7.6    8.1    7.6    56   -0.7   0.0   ---   0.00   0.0   ---    7.6    7.0    7.0  1021.6  0.00   0.0   0.075   0.000   21.3    30    3.0   19.3   6.24 1.2004     ---   130    1     57.0   10 
21/09/21  8:10p    7.1    7.6    7.1    59   -0.4   0.0   ---   0.00   0.0   ---    7.1    6.6    6.6  1021.6  0.00   0.0   0.078   0.000   21.3    30    3.0   19.3   6.24 1.2004     ---   108    1     47.4   10 
21/09/21  8:20p    6.6    7.1    6.6    61   -0.4   0.0   ---   0.00   0.0   ---    6.6    6.2    6.2  1021.8  0.00   0.0   0.081   0.000   21.2    30    2.9   19.3   6.24 1.2010     ---    96    1     42.1   10 
21/09/21  8:30p    6.2    6.6    6.2    63   -0.3   0.0   ---   0.00   0.0   ---    6.2    5.8    5.8  1022.4  0.00   0.0   0.084   0.000   21.1    30    2.8   19.1   6.25 1.2021     ---    66    1     28.9   10 
21/09/21  8:40p    5.8    6.1    5.8    65   -0.3   0.0   ---   0.00   0.0   ---    5.8    5.4    5.4  1022.4  0.00   0.0   0.087   0.000   21.0    30    2.7   19.0   6.25 1.2026     ---   115    1     50.4   10 
21/09/21  8:50p    5.6    5.8    5.6    67   -0.1   0.0   ---   0.00   0.0   ---    5.6    5.2    5.2  1022.0  0.00   0.0   0.089   0.000   21.0    30    2.7   19.0   6.25 1.2022     ---   120    1     52.6   10 
21/09/21  9:00p    5.2    5.5    5.2    69   -0.0   0.0   ---   0.00   0.0   ---    5.2    4.9    4.9  1022.4  0.00   0.0   0.091   0.000   20.9    30    2.7   18.9   6.25 1.2029     ---   119    1     52.2   10 
21/09/21  9:10p    4.9    5.2    4.9    70   -0.1   0.0   ---   0.00   0.0   ---    4.9    4.6    4.6  1022.4  0.00   0.0   0.093   0.000   21.0    30    2.7   19.0   6.25 1.2027     ---   122    1     53.5   10 
21/09/21  9:20p    4.7    4.9    4.7    71   -0.1   0.0   ---   0.00   0.0   ---    4.7    4.3    4.3  1022.3  0.00   0.0   0.095   0.000   21.1    31    3.3   19.2   6.35 1.2017     ---   127    1     55.7   10 
21/09/21  9:30p    4.6    4.6    4.6    73    0.1   0.0   ---   0.00   0.0   ---    4.6    4.3    4.3  1022.4  0.00   0.0   0.096   0.000   21.0    30    2.7   19.0   6.25 1.2027     ---   132    1     57.9   10 
21/09/21  9:40p    4.3    4.4    4.3    74    0.0   0.0   ---   0.00   0.0   ---    4.3    4.0    4.0  1022.4  0.00   0.0   0.098   0.000   21.0    30    2.7   19.0   6.25 1.2027     ---   120    1     52.6   10 
21/09/21  9:50p    4.1    4.3    4.1    75    0.0   0.0   ---   0.00   0.0   ---    4.1    3.8    3.8  1022.6  0.00   0.0   0.099   0.000   20.9    30    2.7   18.9   6.25 1.2031     ---   129    1     56.6   10 
21/09/21 10:00p    3.8    4.1    3.8    76   -0.0   0.0   ---   0.00   0.0   ---    3.8    3.6    3.6  1022.5  0.00   0.0   0.101   0.000   20.9    30    2.7   18.9   6.25 1.2030     ---   141    1     61.8   10 
21/09/21 10:10p    3.7    3.8    3.7    77    0.0   0.0   ---   0.00   0.0   ---    3.7    3.4    3.4  1022.5  0.00   0.0   0.102   0.000   20.8    30    2.6   18.8   6.25 1.2035     ---   114    1     50.0   10 
21/09/21 10:20p    3.6    3.7    3.6    77   -0.1   0.0   ---   0.00   0.0   ---    3.6    3.3    3.3  1022.6  0.00   0.0   0.103   0.000   20.6    30    2.4   18.6   6.25 1.2050     ---    89    1     39.0   10 
21/09/21 10:30p    3.4    3.6    3.4    78   -0.1   0.0   ---   0.00   0.0   ---    3.4    3.2    3.2  1022.8  0.00   0.0   0.104   0.000   20.3    30    2.1   18.3   6.25 1.2065     ---    80    1     35.1   10 
21/09/21 10:40p    3.3    3.4    3.3    78   -0.2   0.0   ---   0.00   0.0   ---    3.3    3.1    3.1  1022.8  0.00   0.0   0.105   0.000   20.0    30    1.9   18.0   6.25 1.2077     ---    83    1     36.4   10 
21/09/21 10:50p    3.1    3.3    3.1    79   -0.2   0.0   ---   0.00   0.0   ---    3.1    2.9    2.9  1022.6  0.00   0.0   0.106   0.000   19.7    30    1.6   17.7   6.25 1.2088     ---   135    1     59.2   10 
21/09/21 11:00p    2.9    3.0    2.9    80   -0.2   0.0   ---   0.00   0.0   ---    2.9    2.8    2.8  1022.7  0.00   0.0   0.107   0.000   19.5    30    1.4   17.5   6.25 1.2099     ---   121    1     53.1   10 
21/09/21 11:10p    2.7    2.9    2.7    80   -0.4   0.0   ---   0.00   0.0   ---    2.7    2.6    2.6  1022.7  0.00   0.0   0.108   0.000   19.3    30    1.3   17.3   6.25 1.2110     ---   119    1     52.2   10 
21/09/21 11:20p    2.6    2.7    2.6    81   -0.4   0.0   ---   0.00   0.0   ---    2.6    2.4    2.4  1022.5  0.00   0.0   0.110   0.000   19.1    30    1.1   17.1   6.25 1.2118     ---   128    1     56.1   10 
21/09/21 11:30p    2.4    2.6    2.4    81   -0.5   0.0   ---   0.00   0.0   ---    2.4    2.2    2.2  1022.7  0.00   0.0   0.111   0.000   18.8    30    0.9   16.8   6.25 1.2131     ---   119    1     52.2   10 
21/09/21 11:40p    2.2    2.4    2.2    81   -0.7   0.0   ---   0.00   0.0   ---    2.2    2.1    2.1  1022.7  0.00   0.0   0.112   0.000   18.6    30    0.7   16.6   6.25 1.2141     ---   116    1     50.9   10 
21/09/21 11:50p    2.0    2.2    2.0    81   -0.9   0.0   ---   0.00   0.0   ---    2.0    1.8    1.8  1022.9  0.00   0.0   0.113   0.000   18.4    30    0.5   16.4   6.25 1.2150     ---   115    1     50.4   10 
22/09/21 12:00a    1.8    2.0    1.8    81   -1.1   0.0   ---   0.00   0.0   ---    1.8    1.7    1.7  1022.8  0.00   0.0   0.115   0.000   18.3    30    0.4   16.2   6.25 1.2158     ---   116    1     50.9   10 
22/09/21 12:10a    1.7    1.8    1.7    83   -0.9   0.0   ---   0.00   0.0   ---    1.7    1.6    1.6  1022.8  0.00   0.0   0.115   0.000   18.1    30    0.2   16.1   6.26 1.2166     ---   129    1     56.6   10 
22/09/21 12:20a    1.7    1.7    1.7    83   -0.9   0.0   ---   0.00   0.0   ---    1.7    1.6    1.6  1022.6  0.00   0.0   0.116   0.000   17.9    30    0.1   15.8   6.27 1.2173     ---   117    1     51.3   10 
22/09/21 12:30a    1.5    1.7    1.5    84   -0.9   0.0   ---   0.00   0.0   ---    1.5    1.4    1.4  1022.5  0.00   0.0   0.117   0.000   17.7    30   -0.1   15.7   6.27 1.2180     ---    99    1     43.4   10 
22/09/21 12:40a    1.4    1.5    1.4    85   -0.9   0.0   ---   0.00   0.0   ---    1.4    1.3    1.3  1022.5  0.00   0.0   0.118   0.000   17.6    30   -0.2   15.6   6.28 1.2185     ---    89    1     39.0   10 
22/09/21 12:50a    1.3    1.4    1.3    85   -0.9   0.0   ---   0.00   0.0   ---    1.3    1.2    1.2  1022.3  0.00   0.0   0.118   0.000   17.4    30   -0.3   15.4   6.28 1.2190     ---    71    1     31.1   10 
22/09/21  1:00a    1.3    1.3    1.3    85   -0.9   0.0   ---   0.00   0.0   ---    1.3    1.2    1.2  1022.4  0.00   0.0   0.118   0.000   17.4    30   -0.4   15.3   6.28 1.2193     ---   107    1     46.9   10 
22/09/21  1:10a    1.2    1.3    1.2    86   -0.9   0.0   ---   0.00   0.0   ---    1.2    1.1    1.1  1022.4  0.00   0.0   0.119   0.000   17.2    31   -0.1   15.2   6.49 1.2199     ---   124    1     54.4   10 
22/09/21  1:20a    1.2    1.2    1.2    86   -0.9   0.0   ---   0.00   0.0   ---    1.2    1.1    1.1  1022.3  0.00   0.0   0.119   0.000   17.1    31   -0.2   15.1   6.49 1.2204     ---   111    1     48.7   10 
22/09/21  1:30a    1.1    1.2    1.1    86   -1.0   0.0   ---   0.00   0.0   ---    1.1    0.9    0.9  1022.1  0.00   0.0   0.120   0.000   16.9    31   -0.3   14.9   6.50 1.2209     ---   105    1     46.1   10 
22/09/21  1:40a    1.0    1.1    1.0    86   -1.1   0.0   ---   0.00   0.0   ---    1.0    0.8    0.8  1022.1  0.00   0.0   0.120   0.000   16.8    31   -0.4   14.9   6.50 1.2214     ---   118    1     51.8   10 
22/09/21  1:50a    0.8    1.0    0.8    87   -1.1   0.0   ---   0.00   0.0   ---    0.8    0.7    0.7  1021.9  0.00   0.0   0.122   0.000   16.7    31   -0.6   14.7   6.51 1.2219     ---   119    1     52.2   10 
22/09/21  2:00a    0.8    0.8    0.7    87   -1.1   0.0   ---   0.00   0.0   ---    0.8    0.7    0.7  1021.8  0.00   0.0   0.122   0.000   16.6    31   -0.6   14.7   6.51 1.2221     ---   120    1     52.6   10 
22/09/21  2:10a    0.8    0.8    0.8    88   -0.9   0.0   ---   0.00   0.0   ---    0.8    0.7    0.7  1021.8  0.00   0.0   0.122   0.000   16.5    31   -0.7   14.6   6.52 1.2226     ---   116    1     50.9   10 
22/09/21  2:20a    0.8    0.8    0.8    88   -0.9   0.0   ---   0.00   0.0   ---    0.8    0.7    0.7  1021.7  0.00   0.0   0.122   0.000   16.3    31   -0.9   14.4   6.52 1.2233     ---   126    1     55.3   10 
22/09/21  2:30a    0.7    0.7    0.7    88   -1.0   0.0   ---   0.00   0.0   ---    0.7    0.6    0.6  1021.4  0.00   0.0   0.122   0.000   16.2    31   -0.9   14.3   6.53 1.2234     ---   131    1     57.5   10 
22/09/21  2:40a    0.8    0.8    0.7    89   -0.8   0.0   ---   0.00   0.0   ---    0.8    0.7    0.7  1021.4  0.00   0.0   0.122   0.000   16.2    31   -1.0   14.2   6.53 1.2236     ---   119    1     52.2   10 
22/09/21  2:50a    0.8    0.8    0.8    89   -0.8   0.0   ---   0.00   0.0   ---    0.8    0.7    0.7  1021.2  0.00   0.0   0.122   0.000   16.0    31   -1.1   14.1   6.53 1.2242     ---   103    1     45.2   10 
22/09/21  3:00a    0.7    0.8    0.7    89   -0.9   0.0   ---   0.00   0.0   ---    0.7    0.6    0.6  1021.2  0.00   0.0   0.123   0.000   15.9    31   -1.2   13.9   6.54 1.2247     ---    87    1     38.2   10 
22/09/21  3:10a    0.5    0.7    0.5    89   -1.1   0.0   ---   0.00   0.0   ---    0.5    0.4    0.4  1021.2  0.00   0.0   0.124   0.000   15.8    31   -1.3   13.8   6.54 1.2252     ---    73    1     32.0   10 
22/09/21  3:20a    0.3    0.5    0.3    89   -1.3   0.0   ---   0.00   0.0   ---    0.3    0.2    0.2  1021.2  0.00   0.0   0.125   0.000   15.7    32   -1.0   13.8   6.64 1.2252     ---    85    1     37.3   10 
22/09/21  3:30a    0.2    0.3    0.2    89   -1.4   0.0   ---   0.00   0.0   ---    0.2    0.1    0.1  1021.3  0.00   0.0   0.126   0.000   15.6    32   -1.0   13.8   6.65 1.2259     ---   130    1     57.0   10 
22/09/21  3:40a    0.0    0.2    0.0    89   -1.6   0.0   ---   0.00   0.0   ---    0.0   -0.1   -0.1  1021.3  0.00   0.0   0.127   0.000   15.6    32   -1.1   13.7   6.65 1.2262     ---   130    1     57.0   10 
22/09/21  3:50a   -0.2    0.0   -0.2    89   -1.8   0.0   ---   0.00   0.0   ---   -0.2   -0.2   -0.2  1021.2  0.00   0.0   0.128   0.000   15.4    32   -1.2   13.6   6.64 1.2268     ---   124    1     54.4   10 
22/09/21  4:00a   -0.2   -0.2   -0.2    89   -1.8   0.0   ---   0.00   0.0   ---   -0.2   -0.3   -0.3  1021.2  0.00   0.0   0.129   0.000   15.3    32   -1.3   13.4   6.64 1.2273     ---    94    1     41.2   10 
22/09/21  4:10a   -0.4   -0.3   -0.4    89   -2.0   0.0   ---   0.00   0.0   ---   -0.4   -0.5   -0.5  1021.2  0.00   0.0   0.130   0.000   15.2    32   -1.4   13.4   6.64 1.2276     ---   124    1     54.4   10 
22/09/21  4:20a   -0.4   -0.4   -0.4    89   -2.0   0.0   ---   0.00   0.0   ---   -0.4   -0.5   -0.5  1021.4  0.00   0.0   0.130   0.000   15.1    32   -1.5   13.3   6.63 1.2284     ---   131    1     57.5   10 
22/09/21  4:30a   -0.4   -0.4   -0.4    89   -2.0   0.0   ---   0.00   0.0   ---   -0.4   -0.5   -0.5  1021.3  0.00   0.0   0.130   0.000   15.1    32   -1.5   13.2   6.63 1.2285     ---   125    1     54.8   10 
22/09/21  4:40a   -0.4   -0.4   -0.4    89   -2.0   0.0   ---   0.00   0.0   ---   -0.4   -0.5   -0.5  1021.3  0.00   0.0   0.130   0.000   14.9    32   -1.6   13.1   6.63 1.2290     ---   127    1     55.7   10 
22/09/21  4:50a   -0.6   -0.4   -0.6    89   -2.1   0.0   ---   0.00   0.0   ---   -0.6   -0.7   -0.7  1021.4  0.00   0.0   0.131   0.000   14.8    32   -1.8   13.0   6.62 1.2299     ---   128    1     56.1   10 
22/09/21  5:00a   -0.7   -0.6   -0.7    89   -2.3   0.0   ---   0.00   0.0   ---   -0.7   -0.8   -0.8  1021.3  0.00   0.0   0.132   0.000   14.7    32   -1.8   12.9   6.62 1.2301     ---   135    1     59.2   10 
22/09/21  5:10a   -0.7   -0.7   -0.7    90   -2.2   0.0   ---   0.00   0.0   ---   -0.7   -0.8   -0.8  1021.3  0.00   0.0   0.132   0.000   14.6    32   -1.9   12.8   6.62 1.2306     ---   117    1     51.3   10